Time;durP1;ratioP1;P1;durP2;ratioP2;P2;SDS_P1;SDS_P2;PMS_P1;PMS_P2;Temp;Humidity;BMP_temperature;BMP_pressure;BME280_temperature;BME280_humidity;BME280_pressure;Samples;Min_cycle;Max_cycle;Signal;HPM_P1;HPM_P2
2023/07/17 00:01:48;;;;;;;4.50;3.70;;;19.40;99.90;;;;;;5040927;28;20447;-79
2023/07/17 00:04:16;;;;;;;6.40;4.67;;;19.40;99.90;;;;;;5041024;28;20434;-79
2023/07/17 00:06:44;;;;;;;7.00;4.57;;;19.40;99.90;;;;;;5044448;28;20966;-79
2023/07/17 00:09:12;;;;;;;6.90;4.10;;;19.40;99.90;;;;;;5043584;28;20447;-79
2023/07/17 00:11:41;;;;;;;5.10;4.03;;;19.40;99.90;;;;;;5045324;28;20532;-79
2023/07/17 00:14:10;;;;;;;5.27;4.70;;;19.40;99.90;;;;;;5045777;28;20442;-79
2023/07/17 00:16:38;;;;;;;5.50;4.47;;;19.40;99.90;;;;;;5045029;28;20469;-79
2023/07/17 00:19:07;;;;;;;8.33;4.77;;;19.30;99.90;;;;;;5043441;28;20447;-80
2023/07/17 00:21:35;;;;;;;8.07;4.70;;;19.30;99.90;;;;;;5045452;28;20465;-79
2023/07/17 00:24:03;;;;;;;7.33;4.90;;;19.30;99.90;;;;;;5044931;28;20449;-79
2023/07/17 00:26:31;;;;;;;6.60;4.90;;;19.20;99.90;;;;;;5043490;28;20497;-79
2023/07/17 00:29:24;;;;;;;5.13;4.10;;;19.30;99.90;;;;;;5042613;28;20449;-79
2023/07/17 00:31:53;;;;;;;5.87;4.50;;;19.20;99.90;;;;;;5043359;28;20489;-79
2023/07/17 00:34:21;;;;;;;4.70;4.30;;;19.20;99.90;;;;;;5043320;28;20493;-79
2023/07/17 00:36:49;;;;;;;5.13;4.63;;;19.20;99.90;;;;;;5042704;28;20458;-79
2023/07/17 00:39:19;;;;;;;5.87;4.77;;;19.20;99.90;;;;;;5045072;28;20485;-80
2023/07/17 00:41:49;;;;;;;5.33;4.40;;;19.20;99.90;;;;;;5042815;28;20447;-79
2023/07/17 00:44:18;;;;;;;5.30;4.60;;;19.10;99.90;;;;;;5042753;28;20475;-79
2023/07/17 00:46:49;;;;;;;6.00;5.00;;;19.10;99.90;;;;;;5042868;28;20454;-80
2023/07/17 00:49:17;;;;;;;5.20;4.50;;;19.10;99.90;;;;;;5044067;28;20821;-80
2023/07/17 00:51:46;;;;;;;7.00;5.10;;;19.10;99.90;;;;;;5043769;28;21006;-80
2023/07/17 00:54:15;;;;;;;5.80;4.67;;;19.10;99.90;;;;;;5042133;28;20478;-79
2023/07/17 00:56:45;;;;;;;7.00;5.47;;;19.10;99.90;;;;;;5041983;28;20458;-80
2023/07/17 00:59:15;;;;;;;7.10;5.30;;;19.10;99.90;;;;;;5041968;28;20439;-80
2023/07/17 01:01:44;;;;;;;5.20;4.70;;;19.10;99.90;;;;;;5041969;28;20459;-79
2023/07/17 01:04:14;;;;;;;7.33;4.97;;;19.00;99.90;;;;;;5041791;28;20541;-79
2023/07/17 01:06:42;;;;;;;7.37;5.07;;;19.00;99.90;;;;;;5042484;28;20435;-80
2023/07/17 01:09:12;;;;;;;4.40;4.00;;;19.00;99.90;;;;;;5041708;28;20451;-80
2023/07/17 01:11:40;;;;;;;8.10;4.80;;;19.00;99.90;;;;;;5040836;28;20471;-80
2023/07/17 01:14:16;;;;;;;5.70;5.03;;;19.00;99.90;;;;;;5041490;28;20886;-78
2023/07/17 01:16:46;;;;;;;5.33;4.07;;;19.00;99.90;;;;;;5041223;28;20422;-80
2023/07/17 01:19:16;;;;;;;6.53;4.80;;;19.00;99.90;;;;;;5043605;28;20514;-80
2023/07/17 01:21:51;;;;;;;5.30;4.53;;;19.00;99.90;;;;;;5043059;28;20435;-79
2023/07/17 01:24:21;;;;;;;5.40;4.53;;;19.00;99.90;;;;;;5045393;28;20517;-80
2023/07/17 01:26:51;;;;;;;7.60;5.33;;;18.90;99.90;;;;;;5043625;28;20447;-79
2023/07/17 01:29:19;;;;;;;4.90;4.33;;;18.90;99.90;;;;;;5042977;28;20451;-79
2023/07/17 01:31:47;;;;;;;5.70;4.93;;;18.90;99.90;;;;;;5043721;28;20482;-79
2023/07/17 01:34:16;;;;;;;9.27;4.50;;;18.90;99.90;;;;;;5043470;28;20435;-79
2023/07/17 01:36:44;;;;;;;4.80;4.30;;;18.80;99.90;;;;;;5042917;28;20465;-79
2023/07/17 01:39:12;;;;;;;6.80;5.10;;;18.80;99.90;;;;;;5044493;28;20447;-80
2023/07/17 01:41:43;;;;;;;5.03;4.53;;;18.80;99.90;;;;;;5044153;28;20497;-79
2023/07/17 01:44:11;;;;;;;5.63;4.93;;;18.70;99.90;;;;;;5043831;28;20438;-79
2023/07/17 01:46:42;;;;;;;6.93;4.83;;;18.70;99.90;;;;;;5042542;28;20982;-79
2023/07/17 01:49:11;;;;;;;7.40;5.43;;;18.60;99.90;;;;;;5041531;28;20517;-80
2023/07/17 01:51:39;;;;;;;5.33;4.83;;;18.60;99.90;;;;;;5040998;28;20474;-79
2023/07/17 01:54:07;;;;;;;5.33;4.83;;;18.60;99.90;;;;;;5041865;28;20458;-79
2023/07/17 01:56:36;;;;;;;4.77;4.23;;;18.50;99.90;;;;;;5041184;28;20513;-79
2023/07/17 01:59:06;;;;;;;7.27;5.13;;;18.50;99.90;;;;;;5040802;28;20451;-80
2023/07/17 02:01:34;;;;;;;5.07;4.57;;;18.50;99.90;;;;;;5040590;28;20829;-79
2023/07/17 02:04:03;;;;;;;5.17;4.67;;;18.50;99.90;;;;;;5040317;28;20439;-79
2023/07/17 02:06:31;;;;;;;6.30;5.17;;;18.50;99.90;;;;;;5041378;28;20454;-79
2023/07/17 02:08:59;;;;;;;7.63;5.20;;;18.40;99.90;;;;;;5040290;28;20477;-79
2023/07/17 02:11:30;;;;;;;7.83;4.90;;;18.40;99.90;;;;;;5042154;28;20952;-79
2023/07/17 02:13:58;;;;;;;7.63;5.80;;;18.40;99.90;;;;;;5040572;28;20508;-79
2023/07/17 02:16:28;;;;;;;6.40;5.07;;;18.40;99.90;;;;;;5040375;28;20437;-79
2023/07/17 02:18:59;;;;;;;7.17;4.90;;;18.40;99.90;;;;;;5040046;28;20435;-79
2023/07/17 02:21:28;;;;;;;6.03;4.50;;;18.40;99.90;;;;;;5040014;28;20454;-79
2023/07/17 02:23:58;;;;;;;10.20;5.80;;;18.40;99.90;;;;;;5041299;28;20410;-78
2023/07/17 02:26:26;;;;;;;6.67;5.00;;;18.40;99.90;;;;;;5042606;28;20437;-78
2023/07/17 02:28:54;;;;;;;5.70;5.10;;;18.30;99.90;;;;;;5039815;28;20618;-79
2023/07/17 02:31:23;;;;;;;4.97;4.47;;;18.30;99.90;;;;;;5041432;28;20488;-79
2023/07/17 02:33:52;;;;;;;6.50;5.00;;;18.30;99.90;;;;;;5039776;28;20479;-79
2023/07/17 02:36:21;;;;;;;6.07;4.70;;;18.30;99.90;;;;;;5041091;28;20513;-79
2023/07/17 02:38:49;;;;;;;5.80;5.07;;;18.30;99.90;;;;;;5039747;28;20883;-79
2023/07/17 02:41:17;;;;;;;6.10;5.07;;;18.30;99.90;;;;;;5039087;28;20471;-79
2023/07/17 02:43:45;;;;;;;6.43;4.57;;;18.30;99.90;;;;;;5039711;28;20803;-79
2023/07/17 02:46:13;;;;;;;9.93;5.13;;;18.20;99.90;;;;;;5039720;28;20482;-79
2023/07/17 02:48:42;;;;;;;6.10;5.50;;;18.20;99.90;;;;;;5040143;28;20474;-79
2023/07/17 02:51:11;;;;;;;7.67;5.23;;;18.20;99.90;;;;;;5039591;28;20988;-79
2023/07/17 02:53:39;;;;;;;9.03;5.30;;;18.20;99.90;;;;;;5042306;28;20471;-78
2023/07/17 02:56:09;;;;;;;6.00;4.50;;;18.20;99.90;;;;;;5042837;28;20526;-79
2023/07/17 02:58:42;;;;;;;7.43;4.53;;;18.20;99.90;;;;;;5042998;28;20447;-79
2023/07/17 03:01:10;;;;;;;6.87;4.73;;;18.20;99.90;;;;;;5046994;28;20487;-79
2023/07/17 03:03:39;;;;;;;6.50;4.57;;;18.20;99.90;;;;;;5043774;28;20466;-78
2023/07/17 03:06:08;;;;;;;5.73;4.70;;;18.20;99.90;;;;;;5042322;28;20454;-78
2023/07/17 03:08:37;;;;;;;7.37;6.43;;;18.20;99.90;;;;;;5042524;28;20486;-79
2023/07/17 03:11:05;;;;;;;6.30;4.83;;;18.20;99.90;;;;;;5043562;28;20476;-79
2023/07/17 03:13:34;;;;;;;5.30;4.80;;;18.10;99.90;;;;;;5041812;28;20510;-79
2023/07/17 03:16:02;;;;;;;5.03;4.40;;;18.10;99.90;;;;;;5040987;28;20458;-79
2023/07/17 03:18:31;;;;;;;5.80;4.67;;;18.10;99.90;;;;;;5040437;28;20483;-79
2023/07/17 03:20:59;;;;;;;6.33;4.97;;;18.10;99.90;;;;;;5040323;28;20474;-79
2023/07/17 03:23:27;;;;;;;7.67;5.47;;;18.10;99.90;;;;;;5036356;28;20446;-77
2023/07/17 03:25:58;;;;;;;6.30;4.80;;;18.10;99.90;;;;;;5031985;28;20526;-77
2023/07/17 03:28:26;;;;;;;7.13;4.57;;;18.10;99.90;;;;;;5033464;28;20784;-77
2023/07/17 03:30:56;;;;;;;10.83;5.27;;;18.10;99.90;;;;;;5031479;28;20463;-77
2023/07/17 03:33:25;;;;;;;5.63;4.77;;;18.10;99.90;;;;;;5033356;28;20477;-78
2023/07/17 03:35:54;;;;;;;6.20;4.63;;;18.10;99.90;;;;;;5031542;28;20465;-77
2023/07/17 03:38:22;;;;;;;5.43;4.40;;;18.10;99.90;;;;;;5031868;28;20978;-77
2023/07/17 03:40:50;;;;;;;6.00;4.73;;;18.10;99.90;;;;;;5035117;28;20983;-77
2023/07/17 03:43:20;;;;;;;7.03;4.90;;;18.10;99.90;;;;;;5037089;28;20924;-77
2023/07/17 03:45:51;;;;;;;8.20;4.57;;;18.10;99.90;;;;;;5037413;28;20482;-77
2023/07/17 03:48:19;;;;;;;5.53;4.43;;;18.10;99.90;;;;;;5035866;28;20443;-77
2023/07/17 03:50:49;;;;;;;6.80;5.00;;;18.10;99.90;;;;;;5035658;28;20486;-77
2023/07/17 03:53:18;;;;;;;6.10;4.23;;;18.10;99.90;;;;;;5036471;28;20493;-77
2023/07/17 03:55:46;;;;;;;6.10;4.47;;;18.10;99.90;;;;;;5036500;28;20457;-77
2023/07/17 03:58:15;;;;;;;5.90;4.40;;;18.10;99.90;;;;;;5035710;28;20482;-78
2023/07/17 04:00:44;;;;;;;7.40;4.77;;;18.10;99.90;;;;;;5035432;28;20441;-78
2023/07/17 04:03:13;;;;;;;5.80;4.40;;;18.10;99.90;;;;;;5035530;28;20863;-78
2023/07/17 04:05:44;;;;;;;7.33;4.60;;;18.10;99.90;;;;;;5035503;28;20442;-78
2023/07/17 04:08:13;;;;;;;4.80;4.00;;;18.10;99.90;;;;;;5036680;28;20512;-78
2023/07/17 04:10:41;;;;;;;6.30;4.97;;;18.10;99.90;;;;;;5035225;28;20843;-78
2023/07/17 04:13:09;;;;;;;5.80;4.20;;;18.10;99.90;;;;;;5035302;28;20470;-78
2023/07/17 04:15:37;;;;;;;6.40;4.47;;;18.10;99.90;;;;;;5035206;28;20450;-78
2023/07/17 04:18:12;;;;;;;7.20;5.23;;;18.10;99.90;;;;;;5036080;28;20431;-78
2023/07/17 04:20:41;;;;;;;5.30;4.57;;;18.10;99.90;;;;;;5035067;28;20462;-78
2023/07/17 04:23:10;;;;;;;5.90;4.00;;;18.10;99.90;;;;;;5035135;28;20450;-78
2023/07/17 04:25:43;;;;;;;6.30;4.67;;;18.10;99.90;;;;;;5035161;28;20868;-78
2023/07/17 04:28:12;;;;;;;5.33;4.23;;;18.10;99.90;;;;;;5035062;28;20447;-78
2023/07/17 04:30:41;;;;;;;6.20;4.80;;;18.10;99.90;;;;;;5034987;28;20528;-78
2023/07/17 04:33:13;;;;;;;5.50;4.10;;;18.10;99.90;;;;;;5035166;28;20535;-78
2023/07/17 04:35:43;;;;;;;6.33;4.20;;;18.10;99.90;;;;;;5034981;28;20481;-78
2023/07/17 04:38:12;;;;;;;6.37;4.17;;;18.10;99.90;;;;;;5036073;28;20493;-78
2023/07/17 04:40:41;;;;;;;5.87;4.37;;;18.10;99.90;;;;;;5034719;28;20470;-78
2023/07/17 04:43:10;;;;;;;6.20;4.50;;;18.10;99.90;;;;;;5034868;28;20458;-78
2023/07/17 04:45:42;;;;;;;5.13;4.27;;;18.10;99.90;;;;;;5034700;28;20527;-78
2023/07/17 04:48:17;;;;;;;5.20;4.07;;;18.20;99.90;;;;;;5034720;28;20544;-78
2023/07/17 04:50:46;;;;;;;10.70;4.83;;;18.20;99.90;;;;;;5034384;28;20486;-78
2023/07/17 04:53:15;;;;;;;5.70;4.30;;;18.20;99.90;;;;;;5034856;28;20477;-76
2023/07/17 04:55:43;;;;;;;5.77;4.60;;;18.20;99.90;;;;;;5034587;28;20450;-76
2023/07/17 04:58:11;;;;;;;5.77;4.33;;;18.20;99.90;;;;;;5035843;28;20454;-77
2023/07/17 05:00:42;;;;;;;5.77;4.87;;;18.20;99.90;;;;;;5034359;28;21019;-77
2023/07/17 05:03:11;;;;;;;5.90;4.80;;;18.20;99.90;;;;;;5035739;28;20431;-77
2023/07/17 05:05:40;;;;;;;6.47;4.87;;;18.30;99.90;;;;;;5034295;28;20489;-77
2023/07/17 05:08:09;;;;;;;9.00;4.80;;;18.30;99.90;;;;;;5034850;28;20458;-77
2023/07/17 05:10:38;;;;;;;6.57;4.30;;;18.30;99.90;;;;;;5034151;28;20513;-77
2023/07/17 05:13:06;;;;;;;6.20;4.43;;;18.30;99.90;;;;;;5034228;28;20447;-77
2023/07/17 05:15:34;;;;;;;6.67;4.77;;;18.30;99.90;;;;;;5034200;28;20446;-76
2023/07/17 05:18:04;;;;;;;7.07;4.67;;;18.30;99.90;;;;;;5034192;28;20479;-77
2023/07/17 05:20:32;;;;;;;5.40;4.40;;;18.30;99.90;;;;;;5034021;28;20459;-77
2023/07/17 05:23:02;;;;;;;5.57;5.00;;;18.30;99.90;;;;;;5034271;28;20854;-76
2023/07/17 05:25:30;;;;;;;7.10;4.87;;;18.20;99.90;;;;;;5035518;28;20427;-77
2023/07/17 05:27:59;;;;;;;8.13;4.40;;;18.20;99.90;;;;;;5033921;28;20478;-77
2023/07/17 05:30:27;;;;;;;7.57;5.17;;;18.30;99.90;;;;;;5033836;28;20466;-76
2023/07/17 05:32:56;;;;;;;6.90;4.83;;;18.20;99.90;;;;;;5034956;28;20522;-77
2023/07/17 05:35:24;;;;;;;7.07;5.50;;;18.30;99.90;;;;;;5034155;28;20467;-77
2023/07/17 05:37:54;;;;;;;7.83;4.80;;;18.30;99.90;;;;;;5034195;28;20453;-76
2023/07/17 05:40:24;;;;;;;6.50;5.00;;;18.30;99.90;;;;;;5034875;28;20463;-77
2023/07/17 05:42:52;;;;;;;5.67;5.17;;;18.30;99.90;;;;;;5034910;28;20442;-77
2023/07/17 05:45:22;;;;;;;9.20;6.00;;;18.40;99.90;;;;;;5033721;28;20973;-76
2023/07/17 05:47:51;;;;;;;5.47;4.80;;;18.40;99.90;;;;;;5033565;28;20967;-76
2023/07/17 05:50:20;;;;;;;8.30;5.10;;;18.50;99.90;;;;;;5035091;28;20986;-76
2023/07/17 05:52:49;;;;;;;8.40;5.40;;;18.50;99.90;;;;;;5033471;28;20451;-76
2023/07/17 05:55:17;;;;;;;5.90;5.10;;;18.60;99.90;;;;;;5033404;28;20550;-77
2023/07/17 05:57:46;;;;;;;7.17;5.60;;;18.80;99.90;;;;;;5033383;28;20447;-76
2023/07/17 06:00:15;;;;;;;8.27;5.07;;;18.90;99.90;;;;;;5033248;28;20474;-76
2023/07/17 06:02:45;;;;;;;6.37;5.00;;;19.10;99.90;;;;;;5033193;28;20450;-76
2023/07/17 06:05:14;;;;;;;7.70;4.90;;;19.20;99.90;;;;;;5033792;28;20446;-76
2023/07/17 06:07:43;;;;;;;8.33;5.63;;;19.40;99.90;;;;;;5034778;28;20920;-77
2023/07/17 06:10:12;;;;;;;5.07;4.50;;;19.50;99.90;;;;;;5032982;28;20545;-77
2023/07/17 06:12:40;;;;;;;8.30;4.67;;;19.60;99.90;;;;;;5034541;28;20481;-77
2023/07/17 06:15:13;;;;;;;7.30;4.47;;;19.80;99.90;;;;;;5034264;28;20873;-77
2023/07/17 06:17:41;;;;;;;5.43;4.23;;;19.90;99.90;;;;;;5034613;28;20418;-77
2023/07/17 06:20:10;;;;;;;7.50;4.77;;;20.00;99.90;;;;;;5034786;28;20462;-77
2023/07/17 06:22:38;;;;;;;6.67;4.30;;;20.10;99.90;;;;;;5032879;28;20454;-77
2023/07/17 06:25:07;;;;;;;6.77;4.60;;;20.20;99.90;;;;;;5034121;28;20450;-77
2023/07/17 06:27:36;;;;;;;5.73;3.90;;;20.30;99.90;;;;;;5032936;28;20471;-77
2023/07/17 06:30:04;;;;;;;7.03;4.83;;;20.40;99.90;;;;;;5033922;28;20462;-77
2023/07/17 06:32:34;;;;;;;6.50;4.40;;;20.50;99.90;;;;;;5032725;28;20453;-77
2023/07/17 06:35:05;;;;;;;6.97;4.50;;;20.60;99.90;;;;;;5033229;28;20469;-77
2023/07/17 06:37:33;;;;;;;7.50;4.20;;;20.70;99.90;;;;;;5032656;28;20823;-77
2023/07/17 06:40:03;;;;;;;5.10;3.80;;;20.80;99.90;;;;;;5033777;28;20465;-77
2023/07/17 06:42:33;;;;;;;5.30;3.70;;;20.90;99.90;;;;;;5032533;28;20537;-77
2023/07/17 06:45:01;;;;;;;7.73;4.30;;;20.90;99.90;;;;;;5032477;28;20450;-77
2023/07/17 06:47:30;;;;;;;5.47;4.07;;;20.90;99.90;;;;;;5033710;28;21006;-77
2023/07/17 06:50:07;;;;;;;8.80;4.80;;;21.00;99.90;;;;;;5032429;28;20477;-77
2023/07/17 06:52:37;;;;;;;7.97;4.03;;;21.00;99.90;;;;;;5032442;28;20458;-77
2023/07/17 06:55:08;;;;;;;7.03;4.13;;;21.00;99.90;;;;;;5032276;28;20554;-77
2023/07/17 06:57:36;;;;;;;7.73;4.13;;;21.00;99.90;;;;;;5032460;28;20534;-77
2023/07/17 07:00:06;;;;;;;6.87;3.60;;;21.10;99.90;;;;;;5033734;28;20494;-77
2023/07/17 07:02:35;;;;;;;6.80;3.63;;;21.10;99.90;;;;;;5034115;28;20441;-76
2023/07/17 07:05:07;;;;;;;5.50;4.17;;;21.10;99.90;;;;;;5034481;28;20451;-77
2023/07/17 07:07:35;;;;;;;7.37;3.40;;;21.10;99.90;;;;;;5034326;28;20422;-77
2023/07/17 07:10:04;;;;;;;4.73;3.63;;;21.10;99.90;;;;;;5034430;28;20474;-77
2023/07/17 07:12:32;;;;;;;5.33;3.80;;;21.20;99.90;;;;;;5035258;28;20435;-78
2023/07/17 07:15:01;;;;;;;7.80;3.53;;;21.20;99.90;;;;;;5034202;28;20463;-77
2023/07/17 07:17:29;;;;;;;5.77;3.07;;;21.20;99.90;;;;;;5032553;28;20998;-77
2023/07/17 07:19:57;;;;;;;5.03;3.23;;;21.20;99.90;;;;;;5034048;28;20464;-77
2023/07/17 07:22:27;;;;;;;5.37;3.20;;;21.10;99.90;;;;;;5034746;28;20431;-76
2023/07/17 07:24:55;;;;;;;5.67;3.90;;;21.10;99.90;;;;;;5034255;28;21007;-78
2023/07/17 07:27:23;;;;;;;6.47;3.43;;;21.00;99.90;;;;;;5033224;28;20439;-78
2023/07/17 07:29:51;;;;;;;6.40;3.83;;;21.00;99.90;;;;;;5033733;28;20486;-78
2023/07/17 07:32:19;;;;;;;5.20;3.43;;;21.00;99.90;;;;;;5032857;28;20479;-78
2023/07/17 07:34:47;;;;;;;7.03;3.63;;;21.00;99.90;;;;;;5033810;28;20489;-78
2023/07/17 07:37:15;;;;;;;6.23;3.63;;;21.10;99.90;;;;;;5032583;28;20443;-77
2023/07/17 07:39:45;;;;;;;8.23;4.00;;;21.20;99.90;;;;;;5032100;28;20546;-77
2023/07/17 07:42:13;;;;;;;7.97;4.20;;;21.30;99.90;;;;;;5032456;28;20542;-78
2023/07/17 07:44:41;;;;;;;8.90;4.40;;;21.40;99.90;;;;;;5032728;28;20447;-77
2023/07/17 07:47:11;;;;;;;9.50;4.23;;;21.50;99.90;;;;;;5034265;28;20435;-78
2023/07/17 07:49:39;;;;;;;6.77;4.20;;;21.60;99.90;;;;;;5034114;28;20459;-78
2023/07/17 07:52:08;;;;;;;8.90;4.80;;;21.70;99.90;;;;;;5034984;28;20443;-78
2023/07/17 07:54:36;;;;;;;6.17;3.77;;;21.80;99.90;;;;;;5033413;28;21035;-77
2023/07/17 07:57:07;;;;;;;9.10;3.87;;;21.90;99.90;;;;;;5034842;28;20526;-78
2023/07/17 07:59:35;;;;;;;6.07;5.47;;;21.90;99.90;;;;;;5033759;28;20455;-78
2023/07/17 08:02:06;;;;;;;8.67;4.30;;;21.90;99.90;;;;;;5034568;28;20423;-77
2023/07/17 08:04:34;;;;;;;15.33;5.40;;;21.90;99.90;;;;;;5033293;28;21034;-78
2023/07/17 08:07:03;;;;;;;8.60;3.80;;;21.90;99.90;;;;;;5033460;28;20447;-78
2023/07/17 08:09:32;;;;;;;8.17;4.00;;;21.90;99.90;;;;;;5033668;28;20493;-78
2023/07/17 08:12:00;;;;;;;6.30;4.27;;;22.00;99.90;;;;;;5034566;28;20488;-77
2023/07/17 08:14:29;;;;;;;8.57;5.00;;;21.90;99.80;;;;;;5032659;28;20522;-78
2023/07/17 08:16:57;;;;;;;5.57;3.73;;;21.90;99.90;;;;;;5035302;28;20893;-78
2023/07/17 08:19:26;;;;;;;5.57;4.57;;;21.80;99.90;;;;;;5033809;28;20462;-77
2023/07/17 08:21:54;;;;;;;6.97;5.30;;;21.70;99.80;;;;;;5034400;28;20471;-78
2023/07/17 08:24:24;;;;;;;5.97;4.40;;;21.60;99.70;;;;;;5034516;28;20994;-78
2023/07/17 08:26:52;;;;;;;5.90;4.00;;;21.60;99.60;;;;;;5035975;28;20817;-78
2023/07/17 08:29:20;;;;;;;6.87;4.57;;;21.60;99.60;;;;;;5037732;28;20449;-78
2023/07/17 08:31:50;;;;;;;5.47;4.27;;;21.50;99.60;;;;;;5036210;28;20486;-78
2023/07/17 08:34:18;;;;;;;6.63;5.20;;;21.50;99.40;;;;;;5037642;28;20478;-78
2023/07/17 08:36:46;;;;;;;6.23;4.40;;;21.50;99.20;;;;;;5035774;28;20889;-78
2023/07/17 08:39:14;;;;;;;7.83;4.57;;;21.60;99.30;;;;;;5036355;28;20447;-79
2023/07/17 08:41:46;;;;;;;9.43;5.30;;;21.60;99.40;;;;;;5038191;28;20450;-79
2023/07/17 08:44:17;;;;;;;8.50;4.63;;;21.70;99.60;;;;;;5036647;28;20527;-78
2023/07/17 08:46:47;;;;;;;6.23;4.10;;;21.80;99.60;;;;;;5037414;28;20795;-79
2023/07/17 08:49:20;;;;;;;7.10;4.50;;;21.80;99.60;;;;;;5035962;28;20435;-78
2023/07/17 08:51:50;;;;;;;5.77;4.90;;;21.90;99.50;;;;;;5036400;28;20443;-78
2023/07/17 08:54:19;;;;;;;10.37;4.97;;;21.90;99.30;;;;;;5036504;28;20451;-78
2023/07/17 08:57:02;;;;;;;6.80;4.93;;;22.00;99.20;;;;;;5035931;28;20463;-77
2023/07/17 08:59:32;;;;;;;6.27;4.73;;;22.00;99.00;;;;;;5036228;28;20475;-77
2023/07/17 09:02:01;;;;;;;7.50;5.33;;;21.90;98.70;;;;;;5036555;28;20455;-79
2023/07/17 09:04:32;;;;;;;11.40;5.17;;;22.00;98.70;;;;;;5037923;28;20803;-78
2023/07/17 09:07:00;;;;;;;7.30;4.53;;;22.00;98.90;;;;;;5037887;28;20443;-79
2023/07/17 09:09:29;;;;;;;7.37;4.83;;;22.00;98.60;;;;;;5037216;28;20490;-80
2023/07/17 09:12:08;;;;;;;5.77;4.53;;;22.10;98.40;;;;;;5037243;28;20818;-78
2023/07/17 09:14:36;;;;;;;7.13;5.30;;;22.20;98.00;;;;;;5036594;28;20485;-79
2023/07/17 09:17:07;;;;;;;5.87;4.87;;;22.20;98.00;;;;;;5035689;28;20513;-78
2023/07/17 09:19:38;;;;;;;7.50;5.13;;;22.20;98.00;;;;;;5037047;28;20541;-78
2023/07/17 09:22:07;;;;;;;5.60;4.20;;;22.10;98.00;;;;;;5037880;28;20831;-78
2023/07/17 09:24:37;;;;;;;7.57;5.10;;;22.10;98.00;;;;;;5035988;28;20829;-78
2023/07/17 09:27:07;;;;;;;7.53;4.83;;;22.10;98.00;;;;;;5035764;28;20811;-78
2023/07/17 09:29:42;;;;;;;10.53;5.20;;;22.10;97.90;;;;;;5035045;28;20467;-78
2023/07/17 09:32:18;;;;;;;6.27;5.07;;;22.10;98.00;;;;;;5036508;28;20426;-78
2023/07/17 09:34:52;;;;;;;6.70;4.50;;;22.10;98.00;;;;;;5035131;28;20928;-78
2023/07/17 09:37:21;;;;;;;8.73;5.47;;;22.10;97.90;;;;;;5035352;28;20508;-78
2023/07/17 09:39:52;;;;;;;6.43;4.50;;;22.10;97.90;;;;;;5034793;28;20502;-79
2023/07/17 09:42:24;;;;;;;6.13;5.17;;;22.10;97.90;;;;;;5035912;28;20443;-78
2023/07/17 09:44:53;;;;;;;6.70;4.70;;;22.10;98.00;;;;;;5034539;28;20442;-78
2023/07/17 09:47:22;;;;;;;5.13;4.57;;;22.10;98.00;;;;;;5034837;28;20455;-78
2023/07/17 09:49:52;;;;;;;8.00;4.97;;;22.20;98.30;;;;;;5034831;28;20467;-77
2023/07/17 09:52:22;;;;;;;7.30;4.83;;;22.20;98.00;;;;;;5034986;28;20454;-77
2023/07/17 09:54:51;;;;;;;6.83;4.50;;;22.20;98.00;;;;;;5034531;28;20447;-78
2023/07/17 09:57:28;;;;;;;6.70;4.50;;;22.20;98.10;;;;;;5034490;28;20475;-77
2023/07/17 09:59:58;;;;;;;5.73;4.50;;;22.20;98.00;;;;;;5036208;28;20545;-78
2023/07/17 10:02:32;;;;;;;6.23;4.50;;;22.10;97.90;;;;;;5034899;28;20547;-77
2023/07/17 10:05:05;;;;;;;9.37;4.80;;;22.10;98.00;;;;;;5034454;28;20434;-78
2023/07/17 10:07:36;;;;;;;9.33;5.10;;;22.00;98.00;;;;;;5034495;28;20456;-77
2023/07/17 10:10:06;;;;;;;8.60;4.63;;;22.00;98.10;;;;;;5034387;28;20874;-77
2023/07/17 10:12:36;;;;;;;5.50;4.33;;;22.00;98.10;;;;;;5035470;28;20435;-77
2023/07/17 10:15:06;;;;;;;5.53;4.30;;;22.00;98.10;;;;;;5033982;28;20498;-77
2023/07/17 10:17:36;;;;;;;5.20;4.50;;;22.00;98.20;;;;;;5034335;28;20474;-77
2023/07/17 10:20:09;;;;;;;6.60;4.77;;;22.00;98.10;;;;;;5033793;28;20562;-77
2023/07/17 10:22:43;;;;;;;5.87;4.33;;;22.00;98.20;;;;;;5034184;28;20509;-78
2023/07/17 10:25:23;;;;;;;7.50;4.80;;;22.10;98.60;;;;;;5034164;28;20455;-77
2023/07/17 10:27:58;;;;;;;8.00;4.97;;;22.10;98.30;;;;;;5034008;28;20867;-77
2023/07/17 10:30:28;;;;;;;6.80;4.87;;;22.10;98.40;;;;;;5033895;28;20487;-77
2023/07/17 10:33:13;;;;;;;8.13;4.33;;;22.10;98.40;;;;;;5033701;28;20451;-77
2023/07/17 10:35:52;;;;;;;5.50;4.80;;;22.20;98.40;;;;;;5032802;28;20443;-77
2023/07/17 10:38:25;;;;;;;5.33;4.83;;;22.20;98.40;;;;;;5032637;28;20473;-77
2023/07/17 10:41:03;;;;;;;7.30;5.10;;;22.20;98.60;;;;;;5034006;28;20462;-77
2023/07/17 10:43:32;;;;;;;7.10;4.70;;;22.20;98.60;;;;;;5034182;28;20511;-77
2023/07/17 10:46:00;;;;;;;6.73;4.53;;;22.30;98.70;;;;;;5033820;28;20873;-77
2023/07/17 10:48:35;;;;;;;5.20;4.27;;;22.40;98.50;;;;;;5033594;28;20874;-77
2023/07/17 10:51:04;;;;;;;5.73;4.67;;;22.40;98.40;;;;;;5032439;28;20478;-77
2023/07/17 10:53:32;;;;;;;5.00;4.23;;;22.40;98.40;;;;;;5034003;28;20447;-77
2023/07/17 10:56:01;;;;;;;7.70;4.57;;;22.50;98.60;;;;;;5032753;28;20439;-76
2023/07/17 10:58:29;;;;;;;8.73;5.30;;;22.50;98.60;;;;;;5032394;28;20477;-77
2023/07/17 11:00:57;;;;;;;6.40;4.47;;;22.60;98.70;;;;;;5033493;28;20828;-77
2023/07/17 11:03:26;;;;;;;5.13;3.47;;;22.70;98.60;;;;;;5032683;28;20505;-77
2023/07/17 11:05:56;;;;;;;7.80;4.47;;;22.80;98.50;;;;;;5032462;28;20451;-77
2023/07/17 11:08:27;;;;;;;6.10;3.50;;;22.90;98.50;;;;;;5032241;28;20866;-77
2023/07/17 11:10:55;;;;;;;4.37;3.97;;;23.00;98.10;;;;;;5032149;28;20890;-78
2023/07/17 11:13:31;;;;;;;6.17;3.70;;;23.00;97.90;;;;;;5033805;28;20447;-77
2023/07/17 11:16:06;;;;;;;10.07;5.10;;;23.00;97.90;;;;;;5034241;28;20422;-77
2023/07/17 11:18:42;;;;;;;7.50;4.30;;;23.10;97.90;;;;;;5032561;28;20486;-77
2023/07/17 11:21:10;;;;;;;5.70;4.17;;;23.10;97.80;;;;;;5033501;28;20455;-77
2023/07/17 11:23:47;;;;;;;4.97;3.73;;;23.10;97.70;;;;;;5032429;28;20504;-77
2023/07/17 11:26:18;;;;;;;6.73;3.80;;;23.10;98.00;;;;;;5032054;28;20446;-77
2023/07/17 11:28:49;;;;;;;4.53;3.27;;;23.10;97.40;;;;;;5032059;28;20440;-77
2023/07/17 11:31:19;;;;;;;4.73;3.20;;;23.00;97.20;;;;;;5032070;28;20831;-77
2023/07/17 11:33:56;;;;;;;4.60;3.20;;;22.90;97.30;;;;;;5033288;28;20909;-77
2023/07/17 11:36:24;;;;;;;5.60;3.53;;;22.70;97.50;;;;;;5032012;28;20444;-78
2023/07/17 11:38:57;;;;;;;4.67;3.30;;;22.60;97.70;;;;;;5032058;28;20521;-77
2023/07/17 11:41:25;;;;;;;3.60;2.90;;;22.40;98.00;;;;;;5031842;28;20462;-77
2023/07/17 11:44:03;;;;;;;5.40;3.40;;;22.20;98.10;;;;;;5038042;28;20461;-77
2023/07/17 11:46:31;;;;;;;4.30;2.73;;;22.00;98.20;;;;;;5036165;28;20441;-77
2023/07/17 11:49:00;;;;;;;5.43;3.43;;;21.80;98.40;;;;;;5038124;28;20474;-77
2023/07/17 11:51:31;;;;;;;4.20;2.90;;;21.70;98.60;;;;;;5038453;28;21018;-78
2023/07/17 11:54:02;;;;;;;5.13;2.90;;;21.60;98.70;;;;;;5041989;28;20519;-78
2023/07/17 11:56:38;;;;;;;9.90;3.17;;;21.50;98.60;;;;;;5048186;28;20427;-77
2023/07/17 11:59:18;;;;;;;3.30;2.70;;;21.40;98.80;;;;;;5046470;28;20455;-78
2023/07/17 12:01:54;;;;;;;4.70;2.50;;;21.20;98.90;;;;;;5050546;28;20522;-78
2023/07/17 12:04:29;;;;;;;8.20;2.97;;;21.10;99.00;;;;;;5052423;28;20421;-77
2023/07/17 12:07:04;;;;;;;4.60;3.00;;;21.10;99.30;;;;;;5050582;28;20442;-78
2023/07/17 12:09:42;;;;;;;7.20;3.50;;;21.00;99.70;;;;;;5051598;28;20462;-77
2023/07/17 12:12:17;;;;;;;4.30;3.60;;;20.90;99.90;;;;;;5049072;28;20485;-78
2023/07/17 12:14:53;;;;;;;3.80;3.20;;;20.80;99.90;;;;;;5051890;28;20427;-78
2023/07/17 12:17:32;;;;;;;3.37;2.33;;;20.60;99.90;;;;;;5051289;28;20493;-79
2023/07/17 12:20:20;;;;;;;2.70;1.97;;;20.40;99.90;;;;;;5053236;28;20497;-79
2023/07/17 12:22:56;;;;;;;2.27;1.70;;;20.10;99.90;;;;;;5044395;28;20458;-79
2023/07/17 12:25:26;;;;;;;2.50;1.70;;;19.80;99.90;;;;;;5036664;28;20434;-79
2023/07/17 12:28:00;;;;;;;2.33;1.40;;;19.60;99.90;;;;;;5035274;28;20446;-79
2023/07/17 12:30:29;;;;;;;3.40;1.70;;;19.50;99.90;;;;;;5035196;28;21071;-78
2023/07/17 12:32:59;;;;;;;3.83;2.00;;;19.40;99.90;;;;;;5035739;28;20777;-78
2023/07/17 12:35:29;;;;;;;3.63;2.57;;;19.40;99.90;;;;;;5036954;28;20510;-78
2023/07/17 12:37:58;;;;;;;4.00;2.13;;;19.30;99.90;;;;;;5036467;28;20470;-78
2023/07/17 12:40:27;;;;;;;2.63;1.70;;;19.30;99.90;;;;;;5034949;28;20478;-78
2023/07/17 12:42:56;;;;;;;3.77;2.40;;;19.20;99.90;;;;;;5035118;28;20459;-79
2023/07/17 12:45:24;;;;;;;3.10;2.23;;;19.20;99.90;;;;;;5036359;28;20557;-75
2023/07/17 12:47:52;;;;;;;3.43;2.40;;;19.10;99.90;;;;;;5036394;28;20435;-75
2023/07/17 12:50:20;;;;;;;3.23;2.67;;;19.10;99.90;;;;;;5034756;28;20462;-75
2023/07/17 12:52:49;;;;;;;3.77;2.20;;;19.10;99.90;;;;;;5036139;28;20435;-75
2023/07/17 12:55:17;;;;;;;4.50;2.57;;;19.00;99.90;;;;;;5036000;28;20533;-74
2023/07/17 12:57:46;;;;;;;3.07;2.50;;;19.10;99.90;;;;;;5035899;28;20466;-75
2023/07/17 13:00:15;;;;;;;3.50;2.10;;;19.10;99.90;;;;;;5035810;28;20458;-75